Terminal Aerodrome Forecast
Issued by NWS

Home | Current Version | Previous Version | Text Only | Print | Product List | Glossary Off
Versions: 1 2 3 4 5 6 7 8 9 10 11 12 13 14 15 16

229
FTUS43 KOAX 111741
TAFCDR
TAF
KCDR 111741Z 1118/1218 30012KT P6SM BKN120
     FM112000 31015G22KT P6SM SCT150
     FM120100 26005KT P6SM BKN120
     FM121000 VRB04KT 5SM BR BKN007 BKN015 OVC050=

USA.gov is the U.S. government's official web portal to all federal, state and local government web resources and services.